Terminal Aerodrome Forecast
Issued by NWS Knoxville/Tri Cities, TN

Home | Current Version | Previous Version | Text Only | Print | Product List | Glossary On
Versions: 1 2 3 4 5 6 7 8 9 10 11 12
000
FTUS44 KMRX 222336
TAFTYS
TAF
KTYS 222336Z 2300/2324 14007KT P6SM BKN070 BKN150
     FM230900 15009KT P6SM VCSH SCT050 OVC120
     FM231100 18013KT 4SM -SHRA BR SCT035 OVC070
     FM231500 21016G24KT 3SM SHRA BR VCTS SCT025CB OVC040
     FM231700 25016G24KT 4SM -SHRA BR SCT020 OVC050
     FM231900 25016G24KT P6SM SCT040 OVC150
     FM232100 25011G19KT P6SM BKN040=

USA.gov is the U.S. government's official web portal to all federal, state and local government web resources and services.